Terminal Aerodrome Forecast
Issued by NWS Cleveland, OH

Home | Current Version | Previous Version | Graphics & Text | Print | Product List | Glossary On
Versions: 1 2 3 4 5 6 7 8 9 10 11 12 13 14 15
877
FTUS41 KCLE 211139
TAFTOL
TAF
KTOL 211139Z 2112/2212 VRB03KT 5SM HZ VCSH SCT035 BKN100
     FM211400 VRB03KT P6SM BKN200
     FM211800 21007KT P6SM VCTS SCT040CB BKN200
     FM212300 21007KT P6SM BKN200=

USA.gov is the U.S. government's official web portal to all federal, state and local government web resources and services.